sensor_id;sensor_type;location;lat;lon;timestamp;P1;durP1;ratioP1;P2;durP2;ratioP2
71955;SDS011;59829;50.562;6.258;2024-02-23T00:03:34;4.75;;;1.85;;
71955;SDS011;59829;50.562;6.258;2024-02-23T00:13:36;4.43;;;1.90;;
71955;SDS011;59829;50.562;6.258;2024-02-23T00:23:36;3.20;;;1.52;;
71955;SDS011;59829;50.562;6.258;2024-02-23T00:33:36;2.50;;;1.20;;
71955;SDS011;59829;50.562;6.258;2024-02-23T00:43:38;3.03;;;1.47;;
71955;SDS011;59829;50.562;6.258;2024-02-23T00:53:39;2.30;;;1.00;;
71955;SDS011;59829;50.562;6.258;2024-02-23T01:03:39;1.98;;;0.77;;
71955;SDS011;59829;50.562;6.258;2024-02-23T01:13:40;1.30;;;0.60;;
71955;SDS011;59829;50.562;6.258;2024-02-23T01:23:40;1.42;;;0.60;;
71955;SDS011;59829;50.562;6.258;2024-02-23T01:33:40;1.85;;;0.57;;
71955;SDS011;59829;50.562;6.258;2024-02-23T01:43:41;1.10;;;0.60;;
71955;SDS011;59829;50.562;6.258;2024-02-23T01:53:41;1.95;;;0.65;;
71955;SDS011;59829;50.562;6.258;2024-02-23T02:03:41;1.77;;;0.35;;
71955;SDS011;59829;50.562;6.258;2024-02-23T02:13:42;2.70;;;0.30;;
71955;SDS011;59829;50.562;6.258;2024-02-23T02:23:43;1.45;;;0.40;;
71955;SDS011;59829;50.562;6.258;2024-02-23T02:33:43;0.82;;;0.40;;
71955;SDS011;59829;50.562;6.258;2024-02-23T02:43:44;1.00;;;0.20;;
71955;SDS011;59829;50.562;6.258;2024-02-23T02:53:44;0.88;;;0.30;;
71955;SDS011;59829;50.562;6.258;2024-02-23T03:03:44;0.35;;;0.13;;
71955;SDS011;59829;50.562;6.258;2024-02-23T03:13:44;0.80;;;0.20;;
71955;SDS011;59829;50.562;6.258;2024-02-23T03:23:45;0.57;;;0.15;;
71955;SDS011;59829;50.562;6.258;2024-02-23T03:33:45;0.55;;;0.20;;
71955;SDS011;59829;50.562;6.258;2024-02-23T03:43:45;1.67;;;0.20;;
71955;SDS011;59829;50.562;6.258;2024-02-23T03:53:46;0.70;;;0.20;;
71955;SDS011;59829;50.562;6.258;2024-02-23T04:03:49;0.73;;;0.00;;
71955;SDS011;59829;50.562;6.258;2024-02-23T04:13:50;0.65;;;0.17;;
71955;SDS011;59829;50.562;6.258;2024-02-23T04:23:50;2.17;;;0.20;;
71955;SDS011;59829;50.562;6.258;2024-02-23T04:33:50;0.63;;;0.10;;
71955;SDS011;59829;50.562;6.258;2024-02-23T04:43:51;0.47;;;0.10;;
71955;SDS011;59829;50.562;6.258;2024-02-23T04:53:52;0.20;;;0.10;;
71955;SDS011;59829;50.562;6.258;2024-02-23T05:03:52;1.10;;;0.17;;
71955;SDS011;59829;50.562;6.258;2024-02-23T05:13:53;1.40;;;0.10;;
71955;SDS011;59829;50.562;6.258;2024-02-23T05:23:53;0.80;;;0.10;;
71955;SDS011;59829;50.562;6.258;2024-02-23T05:33:53;0.75;;;0.20;;
71955;SDS011;59829;50.562;6.258;2024-02-23T05:43:54;1.20;;;0.20;;
71955;SDS011;59829;50.562;6.258;2024-02-23T05:53:54;0.50;;;0.28;;
71955;SDS011;59829;50.562;6.258;2024-02-23T06:03:55;0.57;;;0.30;;
71955;SDS011;59829;50.562;6.258;2024-02-23T06:13:55;0.65;;;0.20;;
71955;SDS011;59829;50.562;6.258;2024-02-23T06:23:56;0.95;;;0.20;;
71955;SDS011;59829;50.562;6.258;2024-02-23T06:33:56;0.40;;;0.13;;
71955;SDS011;59829;50.562;6.258;2024-02-23T06:43:56;0.20;;;0.00;;
71955;SDS011;59829;50.562;6.258;2024-02-23T06:53:57;0.60;;;0.10;;
71955;SDS011;59829;50.562;6.258;2024-02-23T07:03:58;0.55;;;0.10;;
71955;SDS011;59829;50.562;6.258;2024-02-23T07:13:58;1.33;;;0.10;;
71955;SDS011;59829;50.562;6.258;2024-02-23T07:23:59;0.47;;;0.20;;
71955;SDS011;59829;50.562;6.258;2024-02-23T07:34:00;1.08;;;0.25;;
71955;SDS011;59829;50.562;6.258;2024-02-23T07:44:00;0.77;;;0.20;;
71955;SDS011;59829;50.562;6.258;2024-02-23T07:54:00;1.00;;;0.20;;
71955;SDS011;59829;50.562;6.258;2024-02-23T08:04:01;2.58;;;0.47;;
71955;SDS011;59829;50.562;6.258;2024-02-23T08:14:03;10.43;;;0.70;;
71955;SDS011;59829;50.562;6.258;2024-02-23T08:24:03;5.20;;;1.15;;
71955;SDS011;59829;50.562;6.258;2024-02-23T08:34:03;2.45;;;0.50;;
71955;SDS011;59829;50.562;6.258;2024-02-23T08:44:04;0.82;;;0.20;;
71955;SDS011;59829;50.562;6.258;2024-02-23T08:54:04;4.07;;;0.47;;
71955;SDS011;59829;50.562;6.258;2024-02-23T09:04:06;5.97;;;0.65;;
71955;SDS011;59829;50.562;6.258;2024-02-23T09:14:06;6.45;;;0.50;;
71955;SDS011;59829;50.562;6.258;2024-02-23T09:24:07;6.78;;;0.40;;
71955;SDS011;59829;50.562;6.258;2024-02-23T09:34:07;2.97;;;0.40;;
71955;SDS011;59829;50.562;6.258;2024-02-23T09:44:08;1.50;;;0.30;;
71955;SDS011;59829;50.562;6.258;2024-02-23T09:54:09;1.02;;;0.30;;
71955;SDS011;59829;50.562;6.258;2024-02-23T10:04:10;3.17;;;0.43;;
71955;SDS011;59829;50.562;6.258;2024-02-23T10:14:10;6.60;;;0.80;;
71955;SDS011;59829;50.562;6.258;2024-02-23T10:24:11;5.03;;;0.60;;
71955;SDS011;59829;50.562;6.258;2024-02-23T10:34:11;5.60;;;0.88;;
71955;SDS011;59829;50.562;6.258;2024-02-23T10:44:15;5.53;;;0.60;;
71955;SDS011;59829;50.562;6.258;2024-02-23T10:54:18;5.25;;;0.60;;
71955;SDS011;59829;50.562;6.258;2024-02-23T11:04:21;3.85;;;0.43;;
71955;SDS011;59829;50.562;6.258;2024-02-23T11:14:35;1.05;;;0.20;;
71955;SDS011;59829;50.562;6.258;2024-02-23T11:24:41;2.63;;;0.20;;
71955;SDS011;59829;50.562;6.258;2024-02-23T11:34:56;1.98;;;0.20;;
71955;SDS011;59829;50.562;6.258;2024-02-23T11:44:57;1.13;;;0.10;;
71955;SDS011;59829;50.562;6.258;2024-02-23T11:54:59;1.67;;;0.40;;
71955;SDS011;59829;50.562;6.258;2024-02-23T12:04:59;3.43;;;0.53;;
71955;SDS011;59829;50.562;6.258;2024-02-23T12:14:59;3.80;;;0.30;;
71955;SDS011;59829;50.562;6.258;2024-02-23T12:25:00;3.50;;;0.30;;
71955;SDS011;59829;50.562;6.258;2024-02-23T12:35:00;2.33;;;0.32;;
71955;SDS011;59829;50.562;6.258;2024-02-23T12:45:00;5.63;;;0.73;;
71955;SDS011;59829;50.562;6.258;2024-02-23T12:55:01;10.18;;;0.80;;
71955;SDS011;59829;50.562;6.258;2024-02-23T13:05:01;17.33;;;1.73;;
71955;SDS011;59829;50.562;6.258;2024-02-23T13:15:02;12.15;;;0.75;;
71955;SDS011;59829;50.562;6.258;2024-02-23T13:25:02;7.80;;;0.60;;
71955;SDS011;59829;50.562;6.258;2024-02-23T13:35:03;6.57;;;0.60;;
71955;SDS011;59829;50.562;6.258;2024-02-23T13:45:06;7.68;;;0.50;;
71955;SDS011;59829;50.562;6.258;2024-02-23T13:55:08;3.60;;;0.63;;
71955;SDS011;59829;50.562;6.258;2024-02-23T14:05:09;5.23;;;0.30;;
71955;SDS011;59829;50.562;6.258;2024-02-23T14:15:09;2.08;;;0.28;;
71955;SDS011;59829;50.562;6.258;2024-02-23T14:25:10;2.67;;;0.30;;
71955;SDS011;59829;50.562;6.258;2024-02-23T14:35:11;0.88;;;0.13;;
71955;SDS011;59829;50.562;6.258;2024-02-23T14:45:11;1.73;;;0.20;;
71955;SDS011;59829;50.562;6.258;2024-02-23T14:55:13;1.40;;;0.10;;
71955;SDS011;59829;50.562;6.258;2024-02-23T15:05:14;0.85;;;0.10;;
71955;SDS011;59829;50.562;6.258;2024-02-23T15:15:14;1.40;;;0.20;;
71955;SDS011;59829;50.562;6.258;2024-02-23T15:25:15;4.18;;;0.30;;
71955;SDS011;59829;50.562;6.258;2024-02-23T15:35:15;2.55;;;0.43;;
71955;SDS011;59829;50.562;6.258;2024-02-23T15:45:17;0.50;;;0.10;;
71955;SDS011;59829;50.562;6.258;2024-02-23T15:55:17;2.28;;;0.30;;
71955;SDS011;59829;50.562;6.258;2024-02-23T16:05:17;4.22;;;0.25;;
71955;SDS011;59829;50.562;6.258;2024-02-23T16:15:18;0.40;;;0.10;;
71955;SDS011;59829;50.562;6.258;2024-02-23T16:25:19;1.13;;;0.15;;
71955;SDS011;59829;50.562;6.258;2024-02-23T16:35:20;0.98;;;0.20;;
71955;SDS011;59829;50.562;6.258;2024-02-23T16:45:20;1.33;;;0.47;;
71955;SDS011;59829;50.562;6.258;2024-02-23T16:55:21;1.47;;;0.70;;
71955;SDS011;59829;50.562;6.258;2024-02-23T17:05:21;2.58;;;0.90;;
71955;SDS011;59829;50.562;6.258;2024-02-23T17:15:22;1.70;;;0.20;;
71955;SDS011;59829;50.562;6.258;2024-02-23T17:25:23;1.85;;;0.30;;
71955;SDS011;59829;50.562;6.258;2024-02-23T17:35:23;0.47;;;0.20;;
71955;SDS011;59829;50.562;6.258;2024-02-23T17:45:34;5.65;;;1.52;;
71955;SDS011;59829;50.562;6.258;2024-02-23T17:55:35;9.30;;;2.10;;
71955;SDS011;59829;50.562;6.258;2024-02-23T18:05:35;6.90;;;1.63;;
71955;SDS011;59829;50.562;6.258;2024-02-23T18:15:36;6.45;;;1.60;;
71955;SDS011;59829;50.562;6.258;2024-02-23T18:25:43;3.88;;;0.90;;
71955;SDS011;59829;50.562;6.258;2024-02-23T18:46:45;1.88;;;0.70;;
71955;SDS011;59829;50.562;6.258;2024-02-23T19:07:04;1.13;;;0.30;;
71955;SDS011;59829;50.562;6.258;2024-02-23T19:27:53;1.55;;;0.32;;
71955;SDS011;59829;50.562;6.258;2024-02-23T19:38:03;1.63;;;0.50;;
71955;SDS011;59829;50.562;6.258;2024-02-23T19:48:04;0.68;;;0.30;;
71955;SDS011;59829;50.562;6.258;2024-02-23T19:58:32;0.75;;;0.40;;
71955;SDS011;59829;50.562;6.258;2024-02-23T20:18:56;0.88;;;0.35;;
71955;SDS011;59829;50.562;6.258;2024-02-23T20:29:19;1.85;;;0.57;;
71955;SDS011;59829;50.562;6.258;2024-02-23T20:39:47;0.75;;;0.40;;
71955;SDS011;59829;50.562;6.258;2024-02-23T20:50:08;0.63;;;0.20;;
71955;SDS011;59829;50.562;6.258;2024-02-23T21:00:27;0.45;;;0.20;;
71955;SDS011;59829;50.562;6.258;2024-02-23T21:10:42;0.70;;;0.30;;
71955;SDS011;59829;50.562;6.258;2024-02-23T21:21:33;0.60;;;0.30;;
71955;SDS011;59829;50.562;6.258;2024-02-23T21:31:45;0.52;;;0.30;;
71955;SDS011;59829;50.562;6.258;2024-02-23T21:41:46;0.90;;;0.30;;
71955;SDS011;59829;50.562;6.258;2024-02-23T21:52:05;0.60;;;0.30;;
71955;SDS011;59829;50.562;6.258;2024-02-23T22:02:31;0.75;;;0.30;;
71955;SDS011;59829;50.562;6.258;2024-02-23T22:12:36;0.63;;;0.30;;
71955;SDS011;59829;50.562;6.258;2024-02-23T22:23:13;0.40;;;0.20;;
71955;SDS011;59829;50.562;6.258;2024-02-23T22:33:20;1.17;;;0.40;;
71955;SDS011;59829;50.562;6.258;2024-02-23T22:43:59;0.50;;;0.22;;
71955;SDS011;59829;50.562;6.258;2024-02-23T22:54:13;0.40;;;0.20;;
71955;SDS011;59829;50.562;6.258;2024-02-23T23:04:16;0.50;;;0.20;;
71955;SDS011;59829;50.562;6.258;2024-02-23T23:14:17;0.43;;;0.20;;
71955;SDS011;59829;50.562;6.258;2024-02-23T23:24:26;0.40;;;0.17;;
71955;SDS011;59829;50.562;6.258;2024-02-23T23:34:40;0.35;;;0.15;;
71955;SDS011;59829;50.562;6.258;2024-02-23T23:45:01;0.40;;;0.10;;
71955;SDS011;59829;50.562;6.258;2024-02-23T23:55:29;0.38;;;0.13;;
